sensor_id;sensor_type;location;lat;lon;timestamp;pressure;altitude;pressure_sealevel;temperature;humidity
39699;BME280;25372;50.582;12.250;2023-02-18T00:06:24;100052.13;;;7.58;100.00
39699;BME280;25372;50.582;12.250;2023-02-18T00:16:45;100052.28;;;7.56;100.00
39699;BME280;25372;50.582;12.250;2023-02-18T00:27:07;100056.53;;;7.49;100.00
39699;BME280;25372;50.582;12.250;2023-02-18T00:37:28;100063.09;;;7.45;100.00
39699;BME280;25372;50.582;12.250;2023-02-18T00:47:51;100065.78;;;7.53;100.00
39699;BME280;25372;50.582;12.250;2023-02-18T00:58:11;100079.91;;;7.44;100.00
39699;BME280;25372;50.582;12.250;2023-02-18T01:08:35;100071.25;;;7.25;100.00
39699;BME280;25372;50.582;12.250;2023-02-18T01:18:56;100062.44;;;7.43;100.00
39699;BME280;25372;50.582;12.250;2023-02-18T01:29:20;100053.88;;;7.49;100.00
39699;BME280;25372;50.582;12.250;2023-02-18T01:39:41;100037.09;;;7.15;100.00
39699;BME280;25372;50.582;12.250;2023-02-18T01:50:03;100033.63;;;6.89;100.00
39699;BME280;25372;50.582;12.250;2023-02-18T02:00:25;100028.47;;;7.05;98.47
39699;BME280;25372;50.582;12.250;2023-02-18T02:11:07;100025.72;;;7.15;95.72
39699;BME280;25372;50.582;12.250;2023-02-18T02:32:49;100033.47;;;6.90;99.31
39699;BME280;25372;50.582;12.250;2023-02-18T02:43:19;100038.47;;;7.02;99.50
39699;BME280;25372;50.582;12.250;2023-02-18T02:53:42;100048.13;;;7.19;96.66
39699;BME280;25372;50.582;12.250;2023-02-18T03:04:12;100032.09;;;7.39;90.00
39699;BME280;25372;50.582;12.250;2023-02-18T03:14:44;100038.34;;;7.38;89.50
39699;BME280;25372;50.582;12.250;2023-02-18T03:25:09;100037.31;;;7.30;89.13
39699;BME280;25372;50.582;12.250;2023-02-18T03:35:34;100026.72;;;7.22;90.33
39699;BME280;25372;50.582;12.250;2023-02-18T03:45:57;100021.50;;;7.30;89.79
39699;BME280;25372;50.582;12.250;2023-02-18T03:56:19;100031.56;;;7.35;90.31
39699;BME280;25372;50.582;12.250;2023-02-18T04:06:42;100036.50;;;7.30;90.84
39699;BME280;25372;50.582;12.250;2023-02-18T04:17:02;100049.31;;;7.25;92.49
39699;BME280;25372;50.582;12.250;2023-02-18T04:27:24;100041.00;;;7.11;96.60
39699;BME280;25372;50.582;12.250;2023-02-18T04:37:45;100032.31;;;7.19;97.56
39699;BME280;25372;50.582;12.250;2023-02-18T04:48:07;100027.47;;;7.32;94.45
39699;BME280;25372;50.582;12.250;2023-02-18T04:58:28;100037.03;;;7.42;91.70
39699;BME280;25372;50.582;12.250;2023-02-18T05:08:50;100023.44;;;7.20;93.62
39699;BME280;25372;50.582;12.250;2023-02-18T05:19:12;100030.91;;;7.33;93.97
39699;BME280;25372;50.582;12.250;2023-02-18T05:29:34;100013.34;;;7.15;96.82
39699;BME280;25372;50.582;12.250;2023-02-18T05:39:55;99957.34;;;6.87;100.00
39699;BME280;25372;50.582;12.250;2023-02-18T05:50:17;99994.94;;;6.89;100.00
39699;BME280;25372;50.582;12.250;2023-02-18T06:00:38;99998.84;;;6.85;100.00
39699;BME280;25372;50.582;12.250;2023-02-18T06:11:00;100006.19;;;7.00;100.00
39699;BME280;25372;50.582;12.250;2023-02-18T06:21:21;100007.06;;;7.08;100.00
39699;BME280;25372;50.582;12.250;2023-02-18T06:31:43;100004.84;;;6.95;100.00
39699;BME280;25372;50.582;12.250;2023-02-18T06:42:04;100022.31;;;6.96;100.00
39699;BME280;25372;50.582;12.250;2023-02-18T06:52:26;100011.25;;;6.93;100.00
39699;BME280;25372;50.582;12.250;2023-02-18T07:02:49;99985.75;;;6.67;100.00
39699;BME280;25372;50.582;12.250;2023-02-18T07:13:11;100021.06;;;6.83;100.00
39699;BME280;25372;50.582;12.250;2023-02-18T07:23:32;100003.09;;;6.78;100.00
39699;BME280;25372;50.582;12.250;2023-02-18T07:33:54;99982.81;;;6.78;100.00
39699;BME280;25372;50.582;12.250;2023-02-18T07:44:14;99986.66;;;6.84;100.00
39699;BME280;25372;50.582;12.250;2023-02-18T07:54:37;99965.72;;;6.83;100.00
39699;BME280;25372;50.582;12.250;2023-02-18T08:04:57;99956.75;;;6.93;100.00
39699;BME280;25372;50.582;12.250;2023-02-18T08:15:20;99929.59;;;7.01;100.00
39699;BME280;25372;50.582;12.250;2023-02-18T08:25:44;99923.06;;;7.13;100.00
39699;BME280;25372;50.582;12.250;2023-02-18T08:36:08;99896.25;;;7.18;100.00
39699;BME280;25372;50.582;12.250;2023-02-18T08:46:29;99876.31;;;7.32;100.00
39699;BME280;25372;50.582;12.250;2023-02-18T08:56:54;99866.59;;;7.24;100.00
39699;BME280;25372;50.582;12.250;2023-02-18T09:07:17;99847.81;;;7.27;100.00
39699;BME280;25372;50.582;12.250;2023-02-18T09:17:39;99827.91;;;7.33;100.00
39699;BME280;25372;50.582;12.250;2023-02-18T09:27:59;99801.19;;;7.94;100.00
39699;BME280;25372;50.582;12.250;2023-02-18T09:38:21;99731.81;;;8.96;100.00
39699;BME280;25372;50.582;12.250;2023-02-18T09:48:43;99703.31;;;9.29;100.00
39699;BME280;25372;50.582;12.250;2023-02-18T09:59:12;99701.50;;;9.45;100.00
39699;BME280;25372;50.582;12.250;2023-02-18T10:09:36;99681.63;;;9.11;100.00
39699;BME280;25372;50.582;12.250;2023-02-18T10:19:59;99682.44;;;9.11;100.00
39699;BME280;25372;50.582;12.250;2023-02-18T10:30:22;99680.69;;;9.41;100.00
39699;BME280;25372;50.582;12.250;2023-02-18T10:40:54;99651.97;;;9.53;100.00
39699;BME280;25372;50.582;12.250;2023-02-18T10:51:21;99635.09;;;9.69;100.00
39699;BME280;25372;50.582;12.250;2023-02-18T11:01:44;99605.84;;;10.07;100.00
39699;BME280;25372;50.582;12.250;2023-02-18T11:12:12;99561.19;;;10.62;100.00
39699;BME280;25372;50.582;12.250;2023-02-18T11:22:35;99533.91;;;10.40;100.00
39699;BME280;25372;50.582;12.250;2023-02-18T11:32:59;99516.97;;;10.63;100.00
39699;BME280;25372;50.582;12.250;2023-02-18T11:43:27;99487.56;;;10.58;100.00
39699;BME280;25372;50.582;12.250;2023-02-18T11:54:00;99484.94;;;10.36;100.00
39699;BME280;25372;50.582;12.250;2023-02-18T12:04:28;99473.34;;;10.16;100.00
39699;BME280;25372;50.582;12.250;2023-02-18T12:14:49;99474.59;;;9.98;100.00
39699;BME280;25372;50.582;12.250;2023-02-18T12:25:24;99478.56;;;9.87;100.00
39699;BME280;25372;50.582;12.250;2023-02-18T12:35:58;99470.81;;;10.07;100.00
39699;BME280;25372;50.582;12.250;2023-02-18T12:46:35;99475.94;;;9.72;100.00
39699;BME280;25372;50.582;12.250;2023-02-18T12:57:09;99484.88;;;9.50;100.00
39699;BME280;25372;50.582;12.250;2023-02-18T13:07:46;99481.69;;;9.39;100.00
39699;BME280;25372;50.582;12.250;2023-02-18T13:18:13;99450.09;;;9.53;100.00
39699;BME280;25372;50.582;12.250;2023-02-18T13:28:39;99435.75;;;9.84;100.00
39699;BME280;25372;50.582;12.250;2023-02-18T13:39:05;99431.19;;;9.19;100.00
39699;BME280;25372;50.582;12.250;2023-02-18T13:49:32;99436.88;;;9.01;100.00
39699;BME280;25372;50.582;12.250;2023-02-18T13:59:56;99452.72;;;9.01;100.00
39699;BME280;25372;50.582;12.250;2023-02-18T14:10:31;99450.97;;;9.23;100.00
39699;BME280;25372;50.582;12.250;2023-02-18T14:21:04;99453.91;;;9.14;100.00
39699;BME280;25372;50.582;12.250;2023-02-18T14:31:32;99423.44;;;8.88;100.00
39699;BME280;25372;50.582;12.250;2023-02-18T14:41:58;99447.59;;;9.00;99.93
39699;BME280;25372;50.582;12.250;2023-02-18T14:52:29;99466.03;;;9.08;96.84
39699;BME280;25372;50.582;12.250;2023-02-18T15:02:52;99486.63;;;8.98;99.77
39699;BME280;25372;50.582;12.250;2023-02-18T15:13:17;99526.53;;;8.50;100.00
39699;BME280;25372;50.582;12.250;2023-02-18T15:23:39;99521.25;;;8.50;100.00
39699;BME280;25372;50.582;12.250;2023-02-18T15:34:02;99515.56;;;8.61;100.00
39699;BME280;25372;50.582;12.250;2023-02-18T15:44:29;99511.69;;;9.02;98.81
39699;BME280;25372;50.582;12.250;2023-02-18T15:54:54;99514.97;;;9.04;98.41
39699;BME280;25372;50.582;12.250;2023-02-18T16:05:15;99485.19;;;9.10;96.54
39699;BME280;25372;50.582;12.250;2023-02-18T16:15:38;99517.44;;;9.20;94.59
39699;BME280;25372;50.582;12.250;2023-02-18T16:26:11;99534.13;;;9.06;96.22
39699;BME280;25372;50.582;12.250;2023-02-18T16:36:35;99576.25;;;9.07;95.68
39699;BME280;25372;50.582;12.250;2023-02-18T16:46:56;99545.59;;;8.98;96.49
39699;BME280;25372;50.582;12.250;2023-02-18T16:57:18;99566.84;;;9.05;95.47
39699;BME280;25372;50.582;12.250;2023-02-18T17:07:39;99572.50;;;9.17;94.70
39699;BME280;25372;50.582;12.250;2023-02-18T17:18:01;99608.41;;;8.73;100.00
39699;BME280;25372;50.582;12.250;2023-02-18T17:28:23;99609.84;;;8.61;100.00
39699;BME280;25372;50.582;12.250;2023-02-18T17:38:45;99623.72;;;8.54;100.00
39699;BME280;25372;50.582;12.250;2023-02-18T17:49:06;99635.66;;;8.50;100.00
39699;BME280;25372;50.582;12.250;2023-02-18T17:59:27;99659.78;;;8.70;100.00
39699;BME280;25372;50.582;12.250;2023-02-18T18:09:48;99664.50;;;8.83;99.61
39699;BME280;25372;50.582;12.250;2023-02-18T18:20:11;99668.38;;;8.96;97.28
39699;BME280;25372;50.582;12.250;2023-02-18T18:30:33;99706.53;;;8.93;96.98
39699;BME280;25372;50.582;12.250;2023-02-18T18:40:56;99710.94;;;8.78;100.00
39699;BME280;25372;50.582;12.250;2023-02-18T18:51:19;99718.66;;;8.56;100.00
39699;BME280;25372;50.582;12.250;2023-02-18T19:01:42;99698.72;;;8.53;100.00
39699;BME280;25372;50.582;12.250;2023-02-18T19:12:03;99712.75;;;8.46;100.00
39699;BME280;25372;50.582;12.250;2023-02-18T19:22:25;99713.66;;;8.69;100.00
39699;BME280;25372;50.582;12.250;2023-02-18T19:32:46;99714.03;;;8.58;100.00
39699;BME280;25372;50.582;12.250;2023-02-18T19:43:08;99726.34;;;8.34;100.00
39699;BME280;25372;50.582;12.250;2023-02-18T19:53:29;99730.75;;;8.02;100.00
39699;BME280;25372;50.582;12.250;2023-02-18T20:03:51;99736.03;;;8.02;100.00
39699;BME280;25372;50.582;12.250;2023-02-18T20:14:12;99743.56;;;8.14;100.00
39699;BME280;25372;50.582;12.250;2023-02-18T20:24:36;99755.66;;;7.92;100.00
39699;BME280;25372;50.582;12.250;2023-02-18T20:34:57;99761.56;;;8.18;100.00
39699;BME280;25372;50.582;12.250;2023-02-18T20:45:20;99763.22;;;8.11;100.00
39699;BME280;25372;50.582;12.250;2023-02-18T20:55:45;99739.81;;;7.92;100.00
39699;BME280;25372;50.582;12.250;2023-02-18T21:06:07;99759.09;;;8.00;100.00
39699;BME280;25372;50.582;12.250;2023-02-18T21:16:29;99770.63;;;8.08;100.00
39699;BME280;25372;50.582;12.250;2023-02-18T21:26:52;99766.94;;;8.33;100.00
39699;BME280;25372;50.582;12.250;2023-02-18T21:37:13;99764.59;;;8.38;100.00
39699;BME280;25372;50.582;12.250;2023-02-18T21:47:36;99765.16;;;8.26;100.00
39699;BME280;25372;50.582;12.250;2023-02-18T21:57:57;99765.00;;;8.19;100.00
39699;BME280;25372;50.582;12.250;2023-02-18T22:08:19;99763.41;;;7.93;100.00
39699;BME280;25372;50.582;12.250;2023-02-18T22:18:40;99762.72;;;8.08;100.00
39699;BME280;25372;50.582;12.250;2023-02-18T22:29:02;99762.81;;;8.23;100.00
39699;BME280;25372;50.582;12.250;2023-02-18T22:39:23;99774.25;;;8.07;100.00
39699;BME280;25372;50.582;12.250;2023-02-18T22:49:46;99808.63;;;7.65;100.00
39699;BME280;25372;50.582;12.250;2023-02-18T23:00:08;99804.34;;;7.48;100.00
39699;BME280;25372;50.582;12.250;2023-02-18T23:10:31;99797.75;;;7.60;100.00
39699;BME280;25372;50.582;12.250;2023-02-18T23:20:51;99801.56;;;7.66;100.00
39699;BME280;25372;50.582;12.250;2023-02-18T23:31:31;99776.47;;;7.70;100.00
39699;BME280;25372;50.582;12.250;2023-02-18T23:41:56;99785.38;;;7.69;100.00
39699;BME280;25372;50.582;12.250;2023-02-18T23:52:18;99762.47;;;7.78;100.00
